Time;durP1;ratioP1;P1;durP2;ratioP2;P2;SDS_P1;SDS_P2;PMS_P1;PMS_P2;Temp;Humidity;BMP_temperature;BMP_pressure;BME280_temperature;BME280_humidity;BME280_pressure;Samples;Min_cycle;Max_cycle;Signal;HPM_P1;HPM_P2
2021/05/01 00:00:58;;;;;;;1.00;0.67;;;;;;;6.80;89.68;100925.69;4955404;28;20447;-72
2021/05/01 00:03:24;;;;;;;1.47;0.93;;;;;;;6.80;89.67;100925.69;4954962;28;20447;-72
2021/05/01 00:05:49;;;;;;;2.30;1.00;;;;;;;6.72;90.00;100922.72;4954982;28;20453;-73
2021/05/01 00:08:15;;;;;;;1.33;1.23;;;;;;;6.71;91.31;100927.28;4954741;28;20467;-71
2021/05/01 00:10:41;;;;;;;3.80;1.63;;;;;;;6.74;92.03;100926.78;4957413;28;20442;-71
2021/05/01 00:13:07;;;;;;;2.70;1.70;;;;;;;6.72;92.91;100931.59;4960565;28;20491;-72
2021/05/01 00:15:34;;;;;;;0.70;0.70;;;;;;;6.73;93.25;100930.53;4954859;28;20434;-71
2021/05/01 00:18:00;;;;;;;1.00;0.53;;;;;;;6.67;93.67;100926.22;4954842;28;20465;-72
2021/05/01 00:20:26;;;;;;;0.80;0.80;;;;;;;6.64;94.20;100924.06;4954607;28;20447;-72
2021/05/01 00:22:52;;;;;;;1.00;0.87;;;;;;;6.65;94.01;100923.00;4954997;28;20864;-72
2021/05/01 00:25:18;;;;;;;1.47;1.00;;;;;;;6.74;93.78;100925.97;4954846;28;21008;-71
2021/05/01 00:27:44;;;;;;;1.00;0.90;;;;;;;6.59;94.29;100924.03;4955991;28;20490;-70
2021/05/01 00:30:12;;;;;;;2.40;1.10;;;;;;;6.55;94.98;100920.25;4954933;28;20514;-71
2021/05/01 00:32:39;;;;;;;2.23;1.43;;;;;;;6.60;94.77;100928.38;4954015;28;20482;-71
2021/05/01 00:35:06;;;;;;;2.10;0.97;;;;;;;6.67;94.42;100926.22;4954277;28;20967;-71
2021/05/01 00:37:32;;;;;;;1.10;1.10;;;;;;;6.66;94.74;100927.28;4954027;28;21011;-71
2021/05/01 00:39:58;;;;;;;4.10;1.67;;;;;;;6.65;93.60;100922.19;4954346;28;20448;-71
2021/05/01 00:42:24;;;;;;;1.47;1.20;;;;;;;6.59;93.40;100918.66;4954664;28;20453;-71
2021/05/01 00:44:50;;;;;;;3.17;1.40;;;;;;;6.63;93.28;100932.38;4954031;28;20518;-71
2021/05/01 00:47:16;;;;;;;0.73;0.50;;;;;;;6.60;92.58;100933.75;4954737;28;21006;-68
2021/05/01 00:49:42;;;;;;;3.47;1.40;;;;;;;6.61;92.16;100929.16;4954802;28;20470;-70
2021/05/01 00:52:09;;;;;;;0.93;0.70;;;;;;;6.65;91.51;100928.38;4954811;28;20509;-69
2021/05/01 00:54:35;;;;;;;1.90;1.07;;;;;;;6.61;91.89;100921.91;4958127;28;20431;-70
2021/05/01 00:57:01;;;;;;;2.20;0.90;;;;;;;6.50;92.61;100922.94;4958268;28;20466;-70
2021/05/01 00:59:27;;;;;;;0.80;0.73;;;;;;;6.48;92.57;100917.81;4960120;28;20450;-70
2021/05/01 01:01:54;;;;;;;5.40;1.43;;;;;;;6.58;92.92;100915.16;4961224;28;20438;-70
2021/05/01 01:04:20;;;;;;;1.80;0.97;;;;;;;6.61;93.88;100913.81;4960233;28;20446;-71
2021/05/01 01:06:48;;;;;;;1.37;1.27;;;;;;;6.74;93.90;100923.28;4958252;28;20450;-70
2021/05/01 01:09:14;;;;;;;3.07;1.37;;;;;;;6.85;93.53;100916.00;4957937;28;20439;-70
2021/05/01 01:11:41;;;;;;;1.73;1.17;;;;;;;6.93;93.38;100912.78;4961765;28;20442;-70
2021/05/01 01:14:08;;;;;;;1.00;0.90;;;;;;;6.99;93.21;100917.88;4961383;28;20486;-69
2021/05/01 01:16:35;;;;;;;1.30;1.20;;;;;;;7.01;92.98;100925.72;4957874;28;20450;-70
2021/05/01 01:19:02;;;;;;;1.00;0.90;;;;;;;6.96;93.47;100920.34;4957642;28;20867;-70
2021/05/01 01:21:28;;;;;;;1.57;1.47;;;;;;;6.86;94.12;100912.22;4957854;28;20451;-70
2021/05/01 01:23:55;;;;;;;1.33;0.70;;;;;;;6.97;93.94;100916.56;4957583;28;20963;-70
2021/05/01 01:26:21;;;;;;;1.47;1.23;;;;;;;6.92;94.44;100914.69;4957829;28;20457;-71
2021/05/01 01:28:48;;;;;;;1.13;1.00;;;;;;;7.00;94.34;100921.41;4957410;28;20479;-71
2021/05/01 01:31:15;;;;;;;2.40;0.80;;;;;;;7.00;94.43;100910.66;4957744;28;20817;-71
2021/05/01 01:33:41;;;;;;;4.97;1.90;;;;;;;6.93;94.10;100912.78;4957570;28;20490;-70
2021/05/01 01:36:08;;;;;;;3.23;1.03;;;;;;;7.04;93.85;100917.91;4957696;28;20450;-71
2021/05/01 01:38:35;;;;;;;1.50;1.23;;;;;;;6.93;92.82;100920.88;4957530;28;20474;-71
2021/05/01 01:41:02;;;;;;;3.00;1.03;;;;;;;6.88;92.74;100920.88;4957618;28;20525;-71
2021/05/01 01:43:28;;;;;;;1.80;0.80;;;;;;;6.85;92.01;100924.09;4957637;28;20443;-70
2021/05/01 01:45:54;;;;;;;6.47;1.00;;;;;;;6.89;92.15;100920.59;4957496;28;20446;-70
2021/05/01 01:48:20;;;;;;;1.70;1.37;;;;;;;6.79;92.53;100915.19;4957099;28;20980;-70
2021/05/01 01:50:46;;;;;;;2.43;1.53;;;;;;;6.71;92.84;100918.41;4957461;28;20443;-71
2021/05/01 01:53:14;;;;;;;1.63;1.30;;;;;;;6.89;92.14;100922.47;4957218;28;20563;-71
2021/05/01 01:55:41;;;;;;;1.30;1.20;;;;;;;7.02;91.27;100933.53;4957300;28;20447;-71
2021/05/01 01:58:08;;;;;;;1.00;0.90;;;;;;;7.01;92.43;100941.88;4957186;28;20465;-71
2021/05/01 02:00:35;;;;;;;0.90;0.90;;;;;;;7.05;93.34;100932.19;4956947;28;20970;-70
2021/05/01 02:03:01;;;;;;;1.03;0.90;;;;;;;7.17;92.98;100932.75;4957240;28;20454;-71
2021/05/01 02:05:27;;;;;;;1.77;1.60;;;;;;;7.26;93.13;100927.59;4956320;28;20824;-72
2021/05/01 02:07:53;;;;;;;1.17;0.50;;;;;;;7.30;93.37;100921.41;4957092;28;20509;-70
2021/05/01 02:10:19;;;;;;;4.40;2.20;;;;;;;7.36;93.32;100921.41;4957097;28;20451;-71
2021/05/01 02:12:45;;;;;;;2.10;1.30;;;;;;;7.41;93.44;100916.81;4956931;28;20493;-71
2021/05/01 02:15:14;;;;;;;4.10;1.20;;;;;;;7.48;93.58;100924.59;4956981;28;20451;-71
2021/05/01 02:17:42;;;;;;;0.80;0.63;;;;;;;7.49;93.84;100916.25;4956781;28;20476;-71
2021/05/01 02:20:09;;;;;;;3.10;1.80;;;;;;;7.55;93.92;100930.53;4956566;28;21018;-72
2021/05/01 02:22:35;;;;;;;2.27;1.03;;;;;;;7.65;93.81;100918.91;4956487;28;20832;-71
2021/05/01 02:25:01;;;;;;;1.50;1.03;;;;;;;7.69;93.56;100915.41;4956705;28;20479;-71
2021/05/01 02:27:27;;;;;;;2.87;1.97;;;;;;;7.71;93.69;100913.25;4956376;28;20888;-71
2021/05/01 02:29:53;;;;;;;1.67;1.40;;;;;;;7.72;93.47;100925.66;4956406;28;20494;-71
2021/05/01 02:32:20;;;;;;;2.57;1.27;;;;;;;7.74;92.37;100919.97;4956228;28;20490;-71
2021/05/01 02:34:46;;;;;;;3.10;1.00;;;;;;;7.68;91.25;100919.19;4956573;28;20454;-71
2021/05/01 02:37:12;;;;;;;3.33;1.10;;;;;;;7.69;89.99;100912.72;4956450;28;20462;-71
2021/05/01 02:39:38;;;;;;;3.73;2.43;;;;;;;7.68;90.03;100911.09;4956250;28;20457;-71
2021/05/01 02:42:06;;;;;;;1.47;1.30;;;;;;;7.69;90.06;100914.59;4956430;28;20501;-71
2021/05/01 02:44:32;;;;;;;1.40;1.30;;;;;;;7.74;90.66;100901.91;4956209;28;20438;-72
2021/05/01 02:46:58;;;;;;;6.70;1.50;;;;;;;7.73;90.54;100894.91;4956024;28;20508;-71
2021/05/01 02:49:24;;;;;;;2.90;1.67;;;;;;;7.75;90.04;100891.97;4956286;28;20530;-71
2021/05/01 02:51:50;;;;;;;1.90;1.33;;;;;;;7.71;90.02;100882.78;4956252;28;20482;-71
2021/05/01 02:54:16;;;;;;;5.83;2.13;;;;;;;7.72;90.30;100879.81;4956170;28;20486;-71
2021/05/01 02:56:42;;;;;;;4.13;2.23;;;;;;;7.75;90.90;100871.19;4956092;28;20466;-71
2021/05/01 02:59:08;;;;;;;1.63;1.20;;;;;;;7.81;91.56;100870.06;4960793;28;20443;-72
2021/05/01 03:01:34;;;;;;;2.13;1.13;;;;;;;7.84;91.83;100872.22;4971167;28;20442;-71
2021/05/01 03:04:00;;;;;;;2.37;1.70;;;;;;;7.88;92.04;100864.41;4956169;28;20446;-70
2021/05/01 03:06:27;;;;;;;6.27;2.30;;;;;;;7.89;92.25;100865.22;4955762;28;20940;-70
2021/05/01 03:08:53;;;;;;;2.60;0.80;;;;;;;7.96;92.05;100871.09;4955893;28;20470;-70
2021/05/01 03:11:18;;;;;;;5.10;1.77;;;;;;;7.95;92.32;100878.38;4955651;28;21012;-71
2021/05/01 03:13:44;;;;;;;2.00;1.17;;;;;;;7.97;92.27;100872.69;4955836;28;20573;-72
2021/05/01 03:16:10;;;;;;;2.27;1.43;;;;;;;8.01;92.05;100871.06;4955036;28;20451;-71
2021/05/01 03:18:36;;;;;;;3.13;2.40;;;;;;;8.01;91.87;100871.91;4955749;28;20466;-71
2021/05/01 03:21:02;;;;;;;2.70;1.40;;;;;;;8.03;92.18;100871.63;4955783;28;20442;-71
2021/05/01 03:23:29;;;;;;;1.87;1.23;;;;;;;8.05;92.05;100869.44;4955716;28;20442;-71
2021/05/01 03:25:55;;;;;;;4.33;2.70;;;;;;;8.10;91.71;100866.72;4955742;28;20442;-71
2021/05/01 03:28:22;;;;;;;1.63;1.37;;;;;;;8.05;91.48;100859.44;4955342;28;20602;-70
2021/05/01 03:30:48;;;;;;;6.83;1.67;;;;;;;8.06;90.35;100865.69;4955369;28;21035;-71
2021/05/01 03:33:15;;;;;;;3.80;1.57;;;;;;;8.06;88.94;100862.97;4955631;28;20483;-71
2021/05/01 03:35:41;;;;;;;1.67;1.13;;;;;;;8.04;88.04;100862.44;4955641;28;20447;-70
2021/05/01 03:38:07;;;;;;;4.97;2.27;;;;;;;7.95;87.98;100864.09;4955414;28;20467;-70
2021/05/01 03:40:34;;;;;;;3.20;1.83;;;;;;;7.93;88.12;100858.97;4955617;28;20514;-71
2021/05/01 03:43:00;;;;;;;1.20;1.10;;;;;;;7.95;87.79;100856.00;4955547;28;20446;-72
2021/05/01 03:45:26;;;;;;;1.07;0.60;;;;;;;7.92;87.83;100854.66;4955463;28;20450;-72
2021/05/01 03:47:52;;;;;;;4.37;2.10;;;;;;;7.91;88.13;100852.25;4955476;28;20470;-72
2021/05/01 03:50:18;;;;;;;3.33;2.10;;;;;;;7.92;87.96;100851.16;4955392;28;20451;-72
2021/05/01 03:52:43;;;;;;;1.80;1.10;;;;;;;7.97;89.06;100856.50;4955379;28;20545;-71
2021/05/01 03:55:10;;;;;;;3.07;1.53;;;;;;;8.01;89.97;100853.03;4955371;28;20497;-72
2021/05/01 03:57:37;;;;;;;3.77;1.80;;;;;;;8.05;90.42;100854.06;4955368;28;20466;-71
2021/05/01 04:00:04;;;;;;;2.73;2.10;;;;;;;8.06;90.99;100854.88;4955349;28;20446;-71
2021/05/01 04:02:30;;;;;;;3.67;2.40;;;;;;;8.13;90.85;100854.56;4955342;28;20447;-71
2021/05/01 04:04:56;;;;;;;2.83;1.57;;;;;;;8.14;90.96;100859.66;4954943;28;20532;-71
2021/05/01 04:07:22;;;;;;;4.20;2.20;;;;;;;8.08;91.68;100856.19;4954970;28;20884;-72
2021/05/01 04:09:48;;;;;;;1.47;1.20;;;;;;;8.13;91.54;100855.38;4955247;28;20454;-72
2021/05/01 04:12:14;;;;;;;2.90;2.20;;;;;;;8.06;92.08;100855.69;4955381;28;20447;-71
2021/05/01 04:14:41;;;;;;;3.87;1.60;;;;;;;8.09;92.12;100857.00;4955175;28;20589;-72
2021/05/01 04:17:07;;;;;;;2.53;1.10;;;;;;;8.11;92.23;100868.34;4956007;28;20873;-72
2021/05/01 04:19:33;;;;;;;4.00;2.03;;;;;;;8.18;92.07;100868.03;4958729;28;20458;-72
2021/05/01 04:22:03;;;;;;;1.70;1.50;;;;;;;8.28;91.69;100865.28;4958153;28;20825;-72
2021/05/01 04:24:29;;;;;;;4.23;1.73;;;;;;;8.27;91.46;100861.75;4955344;28;20467;-72
2021/05/01 04:26:55;;;;;;;5.13;2.97;;;;;;;8.25;90.06;100863.94;4955210;28;20470;-72
2021/05/01 04:29:21;;;;;;;4.87;2.40;;;;;;;8.23;89.17;100868.78;4960300;28;20431;-72
2021/05/01 04:31:48;;;;;;;6.03;3.70;;;;;;;8.23;88.90;100866.09;4961956;28;20450;-72
2021/05/01 04:34:14;;;;;;;7.43;1.77;;;;;;;8.27;88.19;100863.66;4959301;28;20486;-72
2021/05/01 04:36:40;;;;;;;4.40;1.20;;;;;;;8.26;87.97;100865.56;4958805;28;20501;-71
2021/05/01 04:39:07;;;;;;;3.37;2.67;;;;;;;8.21;87.41;100875.56;4958832;28;20530;-71
2021/05/01 04:41:33;;;;;;;3.40;2.93;;;;;;;8.15;87.06;100871.31;4958496;28;20453;-72
2021/05/01 04:43:59;;;;;;;2.40;1.50;;;;;;;8.15;87.33;100868.59;4958644;28;20444;-71
2021/05/01 04:46:25;;;;;;;5.70;2.27;;;;;;;8.18;88.74;100870.72;4958578;28;20497;-70
2021/05/01 04:48:52;;;;;;;3.83;2.17;;;;;;;8.18;89.36;100879.63;4958152;28;20462;-71
2021/05/01 04:51:18;;;;;;;7.37;1.80;;;;;;;8.09;91.10;100878.59;4958778;28;20451;-72
2021/05/01 04:53:44;;;;;;;2.33;1.40;;;;;;;8.21;90.56;100884.47;4958527;28;20490;-72
2021/05/01 04:56:10;;;;;;;4.57;2.47;;;;;;;8.29;90.39;100878.50;4958392;28;20451;-71
2021/05/01 04:58:36;;;;;;;6.30;2.27;;;;;;;8.28;91.08;100878.78;4958373;28;20466;-71
2021/05/01 05:01:03;;;;;;;4.87;2.90;;;;;;;8.27;91.27;100882.53;4958203;28;20494;-71
2021/05/01 05:03:29;;;;;;;2.43;1.53;;;;;;;8.33;90.89;100889.56;4958353;28;20446;-70
2021/05/01 05:05:56;;;;;;;4.40;2.10;;;;;;;8.36;90.75;100888.97;4958616;28;20447;-70
2021/05/01 05:08:22;;;;;;;4.13;2.07;;;;;;;8.31;90.98;100881.72;4963077;28;20462;-70
2021/05/01 05:10:48;;;;;;;4.90;2.23;;;;;;;8.24;91.18;100889.31;4958117;28;20450;-70
2021/05/01 05:13:22;;;;;;;2.90;1.97;;;;;;;8.30;90.81;100892.78;4957700;28;20999;-71
2021/05/01 05:15:48;;;;;;;1.73;1.10;;;;;;;8.25;90.45;100888.22;4958230;28;20438;-70
2021/05/01 05:18:14;;;;;;;3.33;1.70;;;;;;;8.24;90.71;100888.53;4957907;28;20462;-71
2021/05/01 05:20:40;;;;;;;1.83;1.20;;;;;;;8.27;91.03;100891.44;4957917;28;20469;-73
2021/05/01 05:23:06;;;;;;;2.10;1.90;;;;;;;8.26;91.12;100897.94;4957858;28;20973;-71
2021/05/01 05:25:33;;;;;;;1.50;1.07;;;;;;;8.27;90.23;100898.75;4957795;28;20451;-71
2021/05/01 05:27:59;;;;;;;2.10;1.63;;;;;;;8.26;89.64;100897.94;4957428;28;20513;-71
2021/05/01 05:30:25;;;;;;;1.47;1.13;;;;;;;8.20;89.91;100888.25;4957732;28;20462;-71
2021/05/01 05:32:50;;;;;;;8.20;2.73;;;;;;;8.26;88.99;100892.53;4957607;28;20486;-71
2021/05/01 05:35:17;;;;;;;2.33;1.47;;;;;;;8.29;88.85;100894.69;4957571;28;20871;-71
2021/05/01 05:37:43;;;;;;;1.90;1.43;;;;;;;8.25;88.41;100885.53;4957525;28;20467;-71
2021/05/01 05:40:12;;;;;;;2.43;1.30;;;;;;;8.28;88.39;100895.78;4956231;28;20455;-72
2021/05/01 05:42:38;;;;;;;1.10;0.83;;;;;;;8.25;89.24;100896.31;4957468;28;20559;-71
2021/05/01 05:45:06;;;;;;;2.10;1.30;;;;;;;8.22;90.36;100890.66;4957519;28;20914;-72
2021/05/01 05:47:32;;;;;;;1.93;1.10;;;;;;;8.23;91.14;100893.09;4961161;28;20564;-71
2021/05/01 05:49:58;;;;;;;3.97;1.83;;;;;;;8.31;91.24;100899.78;4974654;28;20447;-71
2021/05/01 05:52:24;;;;;;;1.90;0.90;;;;;;;8.35;91.43;100900.84;4957380;28;20454;-72
2021/05/01 05:54:50;;;;;;;4.57;2.30;;;;;;;8.33;92.04;100911.13;4957056;28;20451;-71
2021/05/01 05:57:17;;;;;;;2.63;1.97;;;;;;;8.45;91.81;100911.63;4957190;28;20463;-72
2021/05/01 05:59:43;;;;;;;3.00;1.63;;;;;;;8.55;91.46;100905.38;4957159;28;20509;-71
2021/05/01 06:02:13;;;;;;;2.00;1.03;;;;;;;8.61;91.24;100901.56;4956854;28;20446;-69
2021/05/01 06:04:44;;;;;;;2.67;1.60;;;;;;;8.68;90.94;100899.34;4957396;28;20442;-72
2021/05/01 06:07:14;;;;;;;3.17;1.80;;;;;;;8.73;90.96;100895.81;4956974;28;20474;-72
2021/05/01 06:09:41;;;;;;;1.47;0.93;;;;;;;8.79;90.43;100892.78;4956750;28;20979;-72
2021/05/01 06:12:09;;;;;;;3.20;2.27;;;;;;;8.87;90.41;100898.69;4956817;28;20553;-72
2021/05/01 06:14:40;;;;;;;2.40;1.80;;;;;;;8.94;90.45;100904.56;4956791;28;20850;-72
2021/05/01 06:17:07;;;;;;;4.03;1.50;;;;;;;9.02;89.58;100912.06;4956771;28;20462;-72
2021/05/01 06:19:33;;;;;;;7.70;3.30;;;;;;;9.04;88.41;100901.78;4956795;28;20463;-72
2021/05/01 06:21:59;;;;;;;5.20;2.97;;;;;;;9.12;86.08;100900.34;4956395;28;20944;-72
2021/05/01 06:24:26;;;;;;;3.07;2.30;;;;;;;9.17;85.17;100895.75;4956641;28;20449;-72
2021/05/01 06:26:53;;;;;;;13.40;2.20;;;;;;;9.22;84.44;100898.38;4956378;28;20457;-71
2021/05/01 06:29:19;;;;;;;3.03;1.63;;;;;;;9.28;84.80;100891.84;4949368;23;20515;-71
2021/05/01 06:31:47;;;;;;;4.67;2.70;;;;;;;9.29;84.75;100890.75;4918449;29;20500;-71
2021/05/01 06:34:13;;;;;;;5.27;3.03;;;;;;;9.21;85.29;100901.34;4920935;29;20496;-71
2021/05/01 06:36:40;;;;;;;5.50;1.90;;;;;;;9.27;85.59;100905.66;4937239;29;20455;-71
2021/05/01 06:39:06;;;;;;;6.13;2.90;;;;;;;9.30;85.96;100907.78;4937227;29;20464;-71
2021/05/01 06:41:40;;;;;;;2.70;1.40;;;;;;;9.38;86.76;100907.16;4937232;29;20462;-71
2021/05/01 06:44:09;;;;;;;2.63;2.07;;;;;;;9.43;87.46;100901.72;4937248;29;20437;-71
2021/05/01 06:46:38;;;;;;;6.63;2.70;;;;;;;9.52;87.47;100904.59;4937170;29;20444;-71
2021/05/01 06:49:09;;;;;;;3.60;1.73;;;;;;;9.60;87.49;100903.97;4937065;29;20463;-71
2021/05/01 06:51:37;;;;;;;2.27;2.00;;;;;;;9.64;87.23;100906.91;4937042;29;20436;-72
2021/05/01 06:54:07;;;;;;;4.77;2.20;;;;;;;9.69;86.98;100910.34;4936968;29;20498;-73
2021/05/01 06:56:33;;;;;;;5.73;2.03;;;;;;;9.78;87.06;100913.22;4936995;29;20460;-73
2021/05/01 06:59:02;;;;;;;7.80;2.70;;;;;;;9.84;86.81;100909.41;4936854;29;20468;-73
2021/05/01 07:01:28;;;;;;;5.37;2.73;;;;;;;9.80;86.32;100906.47;4936918;29;20521;-73
2021/05/01 07:03:55;;;;;;;2.10;1.50;;;;;;;9.87;86.16;100900.69;4942894;29;20435;-73
2021/05/01 07:06:23;;;;;;;2.10;1.73;;;;;;;9.94;85.76;100900.34;4936860;29;20444;-72
2021/05/01 07:08:49;;;;;;;2.27;1.57;;;;;;;10.04;85.63;100902.94;4936731;29;20467;-72
2021/05/01 07:11:15;;;;;;;2.50;1.60;;;;;;;10.10;85.80;100901.78;4936470;29;20968;-72
2021/05/01 07:13:41;;;;;;;4.17;2.10;;;;;;;10.15;84.66;100909.84;4936630;29;20487;-72
2021/05/01 07:16:09;;;;;;;2.80;1.63;;;;;;;10.12;82.58;100899.59;4936087;29;20467;-72
2021/05/01 07:18:37;;;;;;;2.73;1.80;;;;;;;10.13;82.27;100905.78;4936596;29;20478;-72
2021/05/01 07:21:04;;;;;;;4.03;2.23;;;;;;;10.10;81.95;100899.09;4936616;29;20451;-72
2021/05/01 07:23:30;;;;;;;7.53;4.90;;;;;;;10.11;81.90;100897.97;4936252;29;20451;-72
2021/05/01 07:25:56;;;;;;;5.43;3.00;;;;;;;10.15;81.81;100895.50;4936446;29;20876;-72
2021/05/01 07:28:25;;;;;;;6.23;2.30;;;;;;;10.16;81.94;100900.63;4936639;29;20511;-71
2021/05/01 07:30:54;;;;;;;2.03;1.73;;;;;;;10.16;80.84;100905.22;4936450;29;20455;-72
2021/05/01 07:33:25;;;;;;;4.27;2.63;;;;;;;10.14;80.57;100902.81;4936307;29;20483;-72
2021/05/01 07:35:55;;;;;;;3.73;2.33;;;;;;;10.15;81.71;100907.13;4936429;29;20464;-72
2021/05/01 07:38:22;;;;;;;6.50;2.50;;;;;;;10.22;82.91;100899.44;4936229;29;20472;-72
2021/05/01 07:40:50;;;;;;;4.47;2.90;;;;;;;10.28;83.27;100892.91;4936005;29;20957;-72
2021/05/01 07:43:18;;;;;;;3.20;2.50;;;;;;;10.31;83.62;100899.63;4936246;29;20447;-72
2021/05/01 07:45:45;;;;;;;4.83;2.53;;;;;;;10.39;83.04;100904.41;4935697;29;20455;-72
2021/05/01 07:48:14;;;;;;;5.60;2.80;;;;;;;10.42;82.45;100913.84;4936102;29;20476;-71
2021/05/01 07:50:40;;;;;;;3.50;2.03;;;;;;;10.47;82.54;100905.66;4936126;29;20439;-71
2021/05/01 07:53:06;;;;;;;3.23;2.90;;;;;;;10.50;82.93;100902.38;4935797;29;20483;-71
2021/05/01 07:55:33;;;;;;;6.20;3.20;;;;;;;10.58;82.66;100902.53;4935814;29;20972;-71
2021/05/01 07:57:59;;;;;;;4.30;2.27;;;;;;;10.63;82.27;100906.25;4935755;29;20999;-71
2021/05/01 08:00:25;;;;;;;1.70;1.30;;;;;;;10.61;81.62;100906.53;4936010;29;20455;-72
2021/05/01 08:02:51;;;;;;;5.80;2.43;;;;;;;10.73;81.88;100922.34;4935662;29;20514;-72
2021/05/01 08:05:18;;;;;;;3.60;2.10;;;;;;;10.89;81.70;100917.50;4936015;29;20951;-72
2021/05/01 08:07:44;;;;;;;4.43;2.50;;;;;;;10.99;80.38;100904.59;4935939;29;20471;-73
2021/05/01 08:10:12;;;;;;;5.03;2.30;;;;;;;11.13;79.50;100896.50;4935622;29;20444;-73
2021/05/01 08:12:38;;;;;;;3.00;2.57;;;;;;;11.28;79.43;100901.66;4935880;29;20455;-72
2021/05/01 08:15:06;;;;;;;4.27;2.10;;;;;;;11.37;77.15;100901.78;4935892;29;20472;-73
2021/05/01 08:17:33;;;;;;;3.70;2.50;;;;;;;11.39;77.49;100905.03;4935563;29;20965;-72
2021/05/01 08:20:00;;;;;;;3.93;1.90;;;;;;;11.41;77.60;100902.81;4935905;29;20503;-73
2021/05/01 08:22:26;;;;;;;15.40;4.83;;;;;;;11.29;76.64;100900.59;4935591;29;20811;-70
2021/05/01 08:24:52;;;;;;;3.00;2.30;;;;;;;11.34;76.56;100892.34;4935764;29;20565;-71
2021/05/01 08:27:18;;;;;;;6.67;3.40;;;;;;;11.36;76.76;100890.13;4935754;29;20436;-72
2021/05/01 08:39:58;;;;;;;6.40;2.50;;;;;;;12.00;75.52;100893.03;4932063;29;20895;-65
2021/05/01 08:42:25;;;;;;;10.50;2.40;;;;;;;12.12;74.50;100896.03;4935750;29;20530;-64
2021/05/01 08:44:51;;;;;;;7.03;3.57;;;;;;;12.02;72.66;100890.81;4935583;29;20483;-66
2021/05/01 08:47:17;;;;;;;6.80;4.27;;;;;;;12.22;74.41;100888.75;4935354;29;20873;-65
2021/05/01 08:49:43;;;;;;;6.53;3.33;;;;;;;12.42;74.49;100895.69;4935756;29;20490;-66
2021/05/01 08:52:09;;;;;;;6.80;2.50;;;;;;;12.46;71.83;100881.19;4935685;29;20447;-67
2021/05/01 08:54:35;;;;;;;6.43;3.87;;;;;;;12.44;71.77;100879.88;4935797;29;20570;-66
2021/05/01 08:57:23;;;;;;;5.80;3.60;;;;;;;12.20;71.19;100872.78;4935537;29;20482;-66
2021/05/01 08:59:49;;;;;;;6.30;2.67;;;;;;;12.01;72.29;100872.13;4935555;29;20889;-65
2021/05/01 09:02:19;;;;;;;7.20;2.87;;;;;;;11.75;74.20;100878.03;4935593;29;20451;-66
2021/05/01 09:04:46;;;;;;;8.80;3.63;;;;;;;12.02;75.24;100873.72;4935780;29;20443;-65
2021/05/01 09:07:14;;;;;;;4.00;2.40;;;;;;;12.21;74.09;100873.59;4935215;29;21011;-66
2021/05/01 09:09:40;;;;;;;4.70;2.87;;;;;;;12.35;74.06;100877.91;4935558;29;20490;-65
2021/05/01 09:12:08;;;;;;;4.33;2.60;;;;;;;12.52;72.70;100873.72;4935795;29;20455;-65
2021/05/01 09:14:36;;;;;;;6.67;3.13;;;;;;;12.70;71.28;100877.38;4936129;29;20507;-66
2021/05/01 09:17:05;;;;;;;7.67;2.93;;;;;;;12.78;71.45;100879.34;4939045;29;20494;-66
2021/05/01 09:19:32;;;;;;;6.53;2.43;;;;;;;12.66;68.69;100871.78;4939015;29;20499;-66
2021/05/01 09:22:01;;;;;;;6.33;2.40;;;;;;;12.73;68.95;100872.13;4938604;29;20945;-66
2021/05/01 09:24:27;;;;;;;5.60;2.90;;;;;;;12.81;69.66;100868.69;4938367;29;21008;-66
2021/05/01 09:26:53;;;;;;;4.30;3.37;;;;;;;13.14;68.89;100871.91;4938719;29;20459;-65
2021/05/01 09:29:30;;;;;;;6.70;3.70;;;;;;;13.10;68.58;100867.41;4938692;29;20448;-65
2021/05/01 09:31:57;;;;;;;3.07;2.10;;;;;;;13.45;68.75;100857.53;4938635;29;20503;-65
2021/05/01 09:34:37;;;;;;;4.33;2.23;;;;;;;13.74;66.20;100857.03;4938615;29;20875;-65
2021/05/01 09:37:04;;;;;;;5.43;2.60;;;;;;;13.75;66.63;100853.19;4938812;29;20562;-65
2021/05/01 09:39:31;;;;;;;2.90;2.03;;;;;;;13.95;63.89;100867.34;4938284;29;20459;-67
2021/05/01 09:41:57;;;;;;;6.10;3.40;;;;;;;13.96;62.86;100858.84;4938516;29;20503;-66
2021/05/01 09:44:23;;;;;;;4.97;2.07;;;;;;;13.85;61.70;100868.41;4938119;29;20949;-66
2021/05/01 09:46:52;;;;;;;4.33;2.73;;;;;;;13.77;62.14;100867.31;4938399;29;20483;-66
2021/05/01 09:49:20;;;;;;;8.03;2.60;;;;;;;13.44;59.83;100855.16;4938019;29;20954;-66
2021/05/01 09:51:51;;;;;;;3.10;2.37;;;;;;;13.36;61.52;100849.34;4938270;29;20456;-66
2021/05/01 09:54:21;;;;;;;4.00;2.63;;;;;;;13.66;62.03;100841.47;4938104;29;20491;-66
2021/05/01 09:56:48;;;;;;;7.73;2.20;;;;;;;13.97;62.44;100848.75;4937863;29;20993;-66
2021/05/01 09:59:14;;;;;;;3.70;2.17;;;;;;;14.02;60.94;100851.31;4938098;29;20459;-66
2021/05/01 10:06:50;;;;;;;5.13;2.33;;;;;;;13.77;60.30;100850.97;4917730;29;20500;-72
2021/05/01 10:09:23;;;;;;;5.83;2.23;;;;;;;13.84;60.76;100855.94;4919068;29;20441;-73
2021/05/01 10:11:52;;;;;;;3.70;2.53;;;;;;;13.98;60.49;100861.25;4918945;29;20487;-73
2021/05/01 10:14:33;;;;;;;4.63;2.43;;;;;;;14.11;60.45;100850.22;4918596;29;20579;-72
2021/05/01 10:17:00;;;;;;;5.07;3.60;;;;;;;14.17;61.54;100850.09;4918087;29;20436;-73
2021/05/01 10:19:52;;;;;;;7.03;2.10;;;;;;;14.27;61.20;100858.75;4918526;29;20449;-72
2021/05/01 10:22:27;;;;;;;4.83;2.03;;;;;;;14.34;57.34;100863.72;4918836;29;20472;-72
2021/05/01 10:24:55;;;;;;;5.07;3.17;;;;;;;14.42;57.66;100859.41;4918284;29;20490;-73
2021/05/01 10:27:21;;;;;;;3.63;2.40;;;;;;;14.34;58.47;100852.81;4918529;29;20448;-72
2021/05/01 10:30:02;;;;;;;4.73;1.83;;;;;;;14.10;58.75;100864.16;4918678;29;20445;-72
2021/05/01 10:32:31;;;;;;;4.80;1.93;;;;;;;14.04;58.07;100860.81;4918723;29;20437;-72
2021/05/01 10:34:58;;;;;;;3.60;2.17;;;;;;;13.91;58.02;100855.47;4918402;29;20517;-72
2021/05/01 10:37:27;;;;;;;2.70;2.00;;;;;;;13.76;58.36;100849.34;4918598;29;20456;-72
2021/05/01 10:39:58;;;;;;;7.33;2.70;;;;;;;13.59;58.03;100850.09;4918132;29;20468;-72
2021/05/01 10:42:24;;;;;;;3.57;1.43;;;;;;;13.54;58.22;100854.88;4918516;29;20432;-72
2021/05/01 10:44:57;;;;;;;4.70;2.40;;;;;;;13.59;58.74;100857.44;4918254;29;20464;-72
2021/05/01 10:47:23;;;;;;;2.70;2.30;;;;;;;13.60;59.87;100853.63;4917983;29;20835;-72
2021/05/01 10:49:50;;;;;;;3.10;2.80;;;;;;;13.67;59.71;100850.44;4918207;29;20455;-72
2021/05/01 10:52:18;;;;;;;4.43;2.13;;;;;;;13.69;60.07;100843.56;4917913;29;20457;-72
2021/05/01 10:55:07;;;;;;;5.13;1.93;;;;;;;13.82;59.60;100837.19;4917538;29;20492;-73
2021/05/01 10:57:35;;;;;;;2.73;2.20;;;;;;;13.75;59.15;100836.84;4913091;29;20984;-72
2021/05/01 11:00:06;;;;;;;4.30;3.10;;;;;;;13.84;59.91;100828.69;4918535;29;20445;-72
2021/05/01 11:02:36;;;;;;;3.73;2.20;;;;;;;13.79;59.33;100829.66;4917747;29;20910;-71
2021/05/01 11:05:04;;;;;;;3.90;2.17;;;;;;;13.84;58.90;100834.16;4917808;29;20460;-72
2021/05/01 11:07:42;;;;;;;3.63;1.73;;;;;;;13.89;58.08;100851.13;4917871;29;20456;-68
2021/05/01 11:10:11;;;;;;;11.30;3.20;;;;;;;14.03;57.26;100847.47;4918501;29;20978;-72
2021/05/01 11:12:39;;;;;;;4.20;2.10;;;;;;;14.20;57.73;100842.06;4918572;29;20451;-72
2021/05/01 11:15:08;;;;;;;3.03;1.93;;;;;;;14.44;57.86;100847.06;4923786;29;20543;-73
2021/05/01 11:17:36;;;;;;;3.47;1.83;;;;;;;14.69;58.38;100848.19;4917871;29;20459;-72
2021/05/01 11:20:05;;;;;;;2.37;1.57;;;;;;;14.81;57.27;100856.53;4917713;29;20500;-74
2021/05/01 11:22:34;;;;;;;2.33;2.13;;;;;;;14.99;56.42;100848.31;4917770;29;20459;-72
2021/05/01 11:25:03;;;;;;;4.40;2.30;;;;;;;15.27;56.26;100851.44;4947559;23;20527;-65
2021/05/01 11:27:30;;;;;;;7.03;2.53;;;;;;;15.51;55.46;100845.44;4955753;28;20431;-65
2021/05/01 11:29:56;;;;;;;4.70;2.33;;;;;;;15.78;54.93;100853.19;4955598;28;20462;-64
2021/05/01 11:32:22;;;;;;;4.03;2.30;;;;;;;15.75;52.21;100859.31;4955629;28;20446;-67
2021/05/01 11:35:02;;;;;;;3.97;2.27;;;;;;;15.66;52.95;100858.56;4955379;28;20487;-65
2021/05/01 11:37:30;;;;;;;3.03;1.63;;;;;;;15.57;52.97;100866.75;4954924;28;20427;-65
2021/05/01 11:39:56;;;;;;;3.00;2.00;;;;;;;15.45;52.02;100863.94;4955591;28;20454;-66
2021/05/01 11:42:23;;;;;;;7.27;2.33;;;;;;;15.41;53.36;100862.19;4955483;28;20435;-65
2021/05/01 11:44:51;;;;;;;6.57;2.90;;;;;;;15.35;53.95;100859.59;4955385;28;20442;-65